Time;durP1;ratioP1;P1;durP2;ratioP2;P2;SDS_P1;SDS_P2;PMS_P1;PMS_P2;Temp;Humidity;BMP_temperature;BMP_pressure;BME280_temperature;BME280_humidity;BME280_pressure;Samples;Min_cycle;Max_cycle;Signal;HPM_P1;HPM_P2
2022/10/27 00:00:55;;;;;;;;;;;;;;;22.30;62.83;97904.50;580946;244;66886;-67
2022/10/27 00:03:22;;;;;;;;;;;;;;;22.30;62.58;97901.82;577335;243;62885;-67
2022/10/27 00:05:50;;;;;;;;;;;;;;;22.28;62.35;97901.27;576768;246;65140;-67
2022/10/27 00:08:20;;;;;;;;;;;;;;;22.30;62.30;97904.50;576816;246;67380;-67
2022/10/27 00:11:01;;;;;;;;;;;;;;;22.30;62.17;97909.85;576855;246;65069;-67
2022/10/27 00:13:29;;;;;;;;;;;;;;;22.28;61.43;97903.94;576805;246;67326;-67
2022/10/27 00:15:58;;;;;;;;;;;;;;;22.28;62.15;97906.62;576806;246;66713;-66
2022/10/27 00:18:26;;;;;;;;;;;;;;;22.28;63.00;97914.66;576800;246;62685;-67
2022/10/27 00:20:57;;;;;;;;;;;;;;;22.29;63.07;97913.61;576822;246;64866;-66
2022/10/27 00:23:25;;;;;;;;;;;;;;;22.29;62.60;97918.13;576819;246;64376;-66
2022/10/27 00:25:53;;;;;;;;;;;;;;;22.28;62.33;97919.20;576868;246;62767;-66
2022/10/27 00:28:21;;;;;;;;;;;;;;;22.27;63.03;97912.25;576755;246;67259;-66
2022/10/27 00:30:50;;;;;;;;;;;;;;;22.26;62.98;97916.80;576784;246;67295;-66
2022/10/27 00:33:18;;;;;;;;;;;;;;;22.28;62.99;97913.85;577039;241;62777;-67
2022/10/27 00:35:45;;;;;;;;;;;;;;;22.26;62.99;97916.80;576825;246;64771;-67
2022/10/27 00:38:13;;;;;;;;;;;;;;;22.25;63.05;97915.17;576881;246;66927;-68
2022/10/27 00:40:40;;;;;;;;;;;;;;;22.25;62.16;97900.98;576791;246;64867;-68
2022/10/27 00:43:24;;;;;;;;;;;;;;;22.25;63.82;97917.84;576833;246;67197;-68
2022/10/27 00:45:52;;;;;;;;;;;;;;;22.26;62.79;97921.33;576833;241;64820;-68
2022/10/27 00:48:20;;;;;;;;;;;;;;;22.24;62.66;97916.25;576852;246;62810;-68
2022/10/27 00:50:47;;;;;;;;;;;;;;;22.24;63.08;97915.44;576823;246;66908;-68
2022/10/27 00:53:15;;;;;;;;;;;;;;;22.23;63.24;97914.61;576869;246;66886;-68
2022/10/27 00:55:42;;;;;;;;;;;;;;;22.23;63.18;97909.25;576800;246;62976;-68
2022/10/27 00:58:11;;;;;;;;;;;;;;;22.23;62.61;97914.61;576841;246;65181;-68
2022/10/27 01:00:40;;;;;;;;;;;;;;;22.23;62.73;97906.58;576836;246;64937;-69
2022/10/27 01:03:09;;;;;;;;;;;;;;;22.23;62.70;97911.94;579942;244;65077;-69
2022/10/27 01:05:37;;;;;;;;;;;;;;;22.23;63.61;97909.25;580999;244;65199;-68
2022/10/27 01:08:05;;;;;;;;;;;;;;;22.22;62.74;97904.98;580955;244;65671;-68
2022/10/27 01:10:33;;;;;;;;;;;;;;;22.22;62.71;97902.30;580971;244;62654;-68
2022/10/27 01:13:01;;;;;;;;;;;;;;;22.23;63.48;97909.25;580999;244;67098;-69
2022/10/27 01:15:46;;;;;;;;;;;;;;;22.22;62.59;97902.30;580937;244;67093;-68
2022/10/27 01:18:15;;;;;;;;;;;;;;;22.23;63.18;97903.91;580947;244;65011;-68
2022/10/27 01:20:51;;;;;;;;;;;;;;;22.21;62.45;97895.34;580983;244;67111;-68
2022/10/27 01:23:26;;;;;;;;;;;;;;;22.21;63.63;97900.70;579856;242;64734;-68
2022/10/27 01:25:58;;;;;;;;;;;;;;;22.21;63.25;97903.38;581035;242;62834;-68
2022/10/27 01:28:27;;;;;;;;;;;;;;;22.21;63.21;97907.90;581650;241;64989;-68
2022/10/27 01:31:00;;;;;;;;;;;;;;;22.20;63.29;97907.09;580932;244;66913;-69
2022/10/27 01:33:28;;;;;;;;;;;;;;;22.19;63.03;97908.17;580972;244;62407;-68
2022/10/27 01:35:58;;;;;;;;;;;;;;;22.20;62.18;97911.65;581019;241;67385;-68
2022/10/27 01:38:30;;;;;;;;;;;;;;;22.19;62.82;97916.20;581003;241;66575;-69
2022/10/27 01:41:08;;;;;;;;;;;;;;;22.18;62.81;97917.28;580952;244;65094;-68
2022/10/27 01:43:35;;;;;;;;;;;;;;;22.19;62.47;97918.08;580899;242;65123;-68
2022/10/27 01:46:03;;;;;;;;;;;;;;;22.17;62.17;97916.41;580942;244;65137;-68
2022/10/27 01:48:33;;;;;;;;;;;;;;;22.18;62.83;97917.28;581017;244;62779;-68
2022/10/27 01:51:00;;;;;;;;;;;;;;;22.17;62.39;97916.41;580921;242;67359;-67
2022/10/27 01:53:29;;;;;;;;;;;;;;;22.19;63.65;97918.08;580948;244;67787;-67
2022/10/27 01:55:58;;;;;;;;;;;;;;;22.16;61.58;97914.81;580935;244;62764;-67
2022/10/27 01:58:27;;;;;;;;;;;;;;;22.18;63.41;97917.28;581098;242;65635;-67
2022/10/27 02:00:56;;;;;;;;;;;;;;;22.17;61.70;97920.97;580953;244;66903;-67
2022/10/27 02:03:25;;;;;;;;;;;;;;;22.17;62.90;97926.33;578858;242;64957;-67
2022/10/27 02:05:54;;;;;;;;;;;;;;;22.16;62.67;97930.88;578415;245;66904;-67
2022/10/27 02:08:27;;;;;;;;;;;;;;;22.17;62.82;97929.00;579646;241;66842;-67
2022/10/27 02:10:56;;;;;;;;;;;;;;;22.16;62.70;97924.72;578439;245;62567;-68
2022/10/27 02:13:24;;;;;;;;;;;;;;;22.17;63.16;97931.68;578423;241;67565;-68
2022/10/27 02:15:55;;;;;;;;;;;;;;;22.15;62.14;97929.28;578483;245;66929;-68
2022/10/27 02:18:24;;;;;;;;;;;;;;;22.16;62.52;97935.43;578442;245;65235;-68
2022/10/27 02:20:53;;;;;;;;;;;;;;;22.16;62.41;97935.43;578396;245;64875;-68
2022/10/27 02:23:21;;;;;;;;;;;;;;;22.16;62.91;97943.47;578428;245;67238;-68
2022/10/27 02:26:07;;;;;;;;;;;;;;;22.15;62.54;97939.98;578426;245;65093;-67
2022/10/27 02:28:39;;;;;;;;;;;;;;;22.15;63.28;97939.16;578428;245;68005;-66
2022/10/27 02:31:07;;;;;;;;;;;;;;;22.13;63.02;97939.42;578469;245;66903;-67
2022/10/27 02:33:35;;;;;;;;;;;;;;;22.14;62.92;97953.61;578447;245;62751;-67
2022/10/27 02:36:03;;;;;;;;;;;;;;;22.13;62.46;97957.36;578417;245;64882;-67
2022/10/27 02:38:30;;;;;;;;;;;;;;;22.13;62.27;97960.04;578466;245;64736;-67
2022/10/27 02:40:58;;;;;;;;;;;;;;;22.13;62.64;97963.52;578425;245;62748;-67
2022/10/27 02:43:25;;;;;;;;;;;;;;;22.12;61.92;97961.88;578508;245;64977;-67
2022/10/27 02:45:53;;;;;;;;;;;;;;;22.12;62.63;97961.88;578406;245;64872;-67
2022/10/27 02:48:20;;;;;;;;;;;;;;;22.13;62.56;97960.04;578442;245;64897;-67
2022/10/27 02:50:48;;;;;;;;;;;;;;;22.13;62.26;97960.04;578434;245;67244;-67
2022/10/27 02:53:15;;;;;;;;;;;;;;;22.13;62.76;97960.04;578481;245;64070;-67
2022/10/27 02:55:43;;;;;;;;;;;;;;;22.13;63.04;97962.72;578496;245;62792;-67
2022/10/27 02:58:10;;;;;;;;;;;;;;;22.12;63.01;97961.08;578421;245;66951;-67
2022/10/27 03:00:38;;;;;;;;;;;;;;;22.12;63.99;97964.56;578369;245;66987;-67
2022/10/27 03:03:05;;;;;;;;;;;;;;;22.12;62.65;97963.76;580312;244;64887;-67
2022/10/27 03:05:33;;;;;;;;;;;;;;;22.12;62.46;97966.44;580952;244;66784;-67
2022/10/27 03:08:00;;;;;;;;;;;;;;;22.11;62.40;97959.48;581011;244;66641;-67
2022/10/27 03:10:28;;;;;;;;;;;;;;;22.11;62.77;97967.52;580966;244;65913;-67
2022/10/27 03:12:55;;;;;;;;;;;;;;;22.11;63.74;97970.98;580928;244;66884;-68
2022/10/27 03:15:23;;;;;;;;;;;;;;;22.11;62.78;97970.19;580941;244;66948;-68
2022/10/27 03:17:50;;;;;;;;;;;;;;;22.10;62.79;97965.91;580967;244;65038;-68
2022/10/27 03:20:18;;;;;;;;;;;;;;;22.10;62.55;97973.94;580991;244;66786;-68
2022/10/27 03:22:45;;;;;;;;;;;;;;;22.10;63.53;97973.94;580916;244;66883;-68
2022/10/27 03:25:14;;;;;;;;;;;;;;;22.10;63.43;97973.94;580912;244;64890;-68
2022/10/27 03:27:43;;;;;;;;;;;;;;;22.09;62.86;97969.62;580928;244;67588;-68
2022/10/27 03:30:12;;;;;;;;;;;;;;;22.09;62.86;97980.34;580954;244;67076;-67
2022/10/27 03:32:39;;;;;;;;;;;;;;;22.09;63.49;97972.30;580939;244;65044;-68
2022/10/27 03:35:07;;;;;;;;;;;;;;;22.10;62.96;97976.61;580992;244;67063;-68
2022/10/27 03:37:34;;;;;;;;;;;;;;;22.08;62.25;97970.70;580964;244;66974;-67
2022/10/27 03:40:02;;;;;;;;;;;;;;;22.07;63.08;97969.90;580902;244;64923;-67
2022/10/27 03:42:29;;;;;;;;;;;;;;;22.09;62.84;97974.98;580970;244;67219;-67
2022/10/27 03:44:57;;;;;;;;;;;;;;;22.08;62.76;97978.73;580932;244;66971;-67
2022/10/27 03:47:25;;;;;;;;;;;;;;;22.07;63.10;97977.93;580982;244;65381;-67
2022/10/27 03:49:52;;;;;;;;;;;;;;;22.08;63.16;97981.41;580908;244;67095;-67
2022/10/27 03:52:21;;;;;;;;;;;;;;;22.08;63.27;97984.09;580925;244;66865;-67
2022/10/27 03:54:48;;;;;;;;;;;;;;;22.07;63.13;97979.77;580921;244;63685;-67
2022/10/27 03:57:16;;;;;;;;;;;;;;;22.07;62.82;97983.28;580950;244;64757;-67
2022/10/27 03:59:43;;;;;;;;;;;;;;;22.06;62.72;97978.97;580965;244;64776;-67
2022/10/27 04:02:11;;;;;;;;;;;;;;;22.06;62.42;97987.00;580916;244;66095;-67
2022/10/27 04:04:39;;;;;;;;;;;;;;;22.07;62.85;97985.12;580881;244;67193;-67
2022/10/27 04:07:06;;;;;;;;;;;;;;;22.05;62.89;97989.95;580924;244;64646;-66
2022/10/27 04:09:34;;;;;;;;;;;;;;;22.05;63.14;97992.62;580952;244;62761;-66
2022/10/27 04:12:01;;;;;;;;;;;;;;;22.05;63.23;97989.95;580969;244;65078;-68
2022/10/27 04:14:29;;;;;;;;;;;;;;;22.06;63.48;97999.58;580912;244;65164;-67
2022/10/27 04:16:56;;;;;;;;;;;;;;;22.05;63.23;97997.98;580964;244;64905;-67
2022/10/27 04:19:23;;;;;;;;;;;;;;;22.04;63.29;98002.50;580888;244;67123;-68
2022/10/27 04:21:51;;;;;;;;;;;;;;;22.04;62.69;97996.34;580919;244;66863;-68
2022/10/27 04:24:18;;;;;;;;;;;;;;;22.04;63.19;97999.02;580934;244;64908;-68
2022/10/27 04:26:46;;;;;;;;;;;;;;;22.04;64.09;98007.05;580991;244;67279;-68
2022/10/27 04:29:13;;;;;;;;;;;;;;;22.03;63.04;98000.90;580946;244;67885;-68
2022/10/27 04:31:42;;;;;;;;;;;;;;;22.02;62.10;98004.65;580965;244;65098;-67
2022/10/27 04:34:09;;;;;;;;;;;;;;;22.03;62.90;98010.80;580911;244;66797;-67
2022/10/27 04:36:37;;;;;;;;;;;;;;;22.03;64.00;98016.16;580927;244;66866;-67
2022/10/27 04:39:04;;;;;;;;;;;;;;;22.03;63.04;98018.83;580861;244;64860;-67
2022/10/27 04:41:32;;;;;;;;;;;;;;;22.02;62.75;98015.36;580922;244;65119;-67
2022/10/27 04:43:59;;;;;;;;;;;;;;;22.03;62.72;98018.83;580926;244;65048;-67
2022/10/27 04:46:27;;;;;;;;;;;;;;;22.03;63.84;98026.86;580944;244;62772;-67
2022/10/27 04:48:56;;;;;;;;;;;;;;;22.02;62.63;98025.26;580940;244;67916;-67
2022/10/27 04:51:24;;;;;;;;;;;;;;;22.01;62.29;98024.42;580970;244;68126;-67
2022/10/27 04:53:51;;;;;;;;;;;;;;;22.01;63.10;98027.10;580942;244;64915;-68
2022/10/27 04:56:19;;;;;;;;;;;;;;;22.01;63.45;98028.98;580847;244;67184;-68
2022/10/27 04:58:46;;;;;;;;;;;;;;;22.00;63.46;98035.40;580944;244;66901;-68
2022/10/27 05:01:14;;;;;;;;;;;;;;;21.99;64.09;98026.57;580896;244;64911;-68
2022/10/27 05:03:42;;;;;;;;;;;;;;;21.99;63.67;98026.57;580834;244;64988;-68
2022/10/27 05:06:09;;;;;;;;;;;;;;;21.99;63.94;98023.06;580936;244;66777;-68
2022/10/27 05:08:36;;;;;;;;;;;;;;;21.98;62.16;98035.64;580952;244;65192;-68
2022/10/27 05:11:04;;;;;;;;;;;;;;;21.98;63.46;98030.29;580926;244;67131;-68
2022/10/27 05:13:32;;;;;;;;;;;;;;;21.99;62.13;98039.12;580924;244;67046;-68
2022/10/27 05:16:03;;;;;;;;;;;;;;;21.99;61.81;98033.77;580957;244;62773;-68
2022/10/27 05:18:31;;;;;;;;;;;;;;;21.98;61.22;98045.55;580968;244;67057;-68
2022/10/27 05:20:59;;;;;;;;;;;;;;;21.99;62.13;98047.15;580928;244;66823;-67
2022/10/27 05:23:28;;;;;;;;;;;;;;;21.98;63.13;98057.05;580939;244;64872;-68
2022/10/27 05:25:56;;;;;;;;;;;;;;;21.97;64.09;98052.77;580966;244;68297;-68
2022/10/27 05:28:24;;;;;;;;;;;;;;;21.97;62.84;98051.97;580921;244;67195;-68
2022/10/27 05:30:53;;;;;;;;;;;;;;;21.96;64.02;98059.16;581004;244;62694;-67
2022/10/27 05:33:21;;;;;;;;;;;;;;;21.96;63.31;98053.81;580967;244;67271;-67
2022/10/27 05:35:49;;;;;;;;;;;;;;;21.97;64.62;98060.00;580960;244;66913;-67
2022/10/27 05:38:17;;;;;;;;;;;;;;;21.95;63.13;98061.04;580944;244;65081;-67
2022/10/27 05:40:46;;;;;;;;;;;;;;;21.95;63.47;98062.91;580710;244;67340;-67
2022/10/27 05:43:14;;;;;;;;;;;;;;;21.95;63.89;98066.39;580907;244;67014;-66
2022/10/27 05:45:41;;;;;;;;;;;;;;;21.95;62.53;98074.42;580978;244;65203;-66
2022/10/27 05:48:10;;;;;;;;;;;;;;;21.94;63.15;98067.47;580864;244;64482;-66
2022/10/27 05:50:37;;;;;;;;;;;;;;;21.95;64.10;98077.09;580939;244;67096;-66
2022/10/27 05:53:06;;;;;;;;;;;;;;;21.95;63.25;98079.77;580922;244;65020;-66
2022/10/27 05:55:34;;;;;;;;;;;;;;;21.94;62.54;98072.81;580984;244;65128;-67
2022/10/27 05:58:02;;;;;;;;;;;;;;;21.95;63.71;98076.30;580998;244;64823;-67
2022/10/27 06:00:31;;;;;;;;;;;;;;;21.94;62.61;98082.72;580961;244;62802;-67
2022/10/27 06:02:59;;;;;;;;;;;;;;;21.94;63.88;98088.07;580211;244;67227;-67
2022/10/27 06:05:28;;;;;;;;;;;;;;;21.95;62.73;98090.48;580875;244;67071;-66
2022/10/27 06:07:56;;;;;;;;;;;;;;;21.95;62.73;98090.48;580935;244;65462;-66
2022/10/27 06:10:24;;;;;;;;;;;;;;;21.95;62.21;98087.80;580946;244;67290;-66
2022/10/27 06:12:51;;;;;;;;;;;;;;;21.94;62.58;98088.87;580936;244;66897;-67
2022/10/27 06:15:19;;;;;;;;;;;;;;;21.94;61.51;98094.23;580947;244;65053;-67
2022/10/27 06:17:48;;;;;;;;;;;;;;;21.94;63.06;98096.91;580926;244;67157;-67
2022/10/27 06:20:15;;;;;;;;;;;;;;;21.94;62.96;98101.45;580947;242;66868;-67
2022/10/27 06:22:44;;;;;;;;;;;;;;;21.94;63.10;98110.28;580970;244;64938;-67
2022/10/27 06:25:12;;;;;;;;;;;;;;;21.96;64.08;98107.34;580951;244;67226;-67
2022/10/27 06:27:39;;;;;;;;;;;;;;;21.95;62.72;98106.54;580965;244;66921;-67
2022/10/27 06:30:07;;;;;;;;;;;;;;;21.95;62.50;98103.06;580955;244;62634;-69
2022/10/27 06:32:38;;;;;;;;;;;;;;;21.95;61.46;98103.86;580915;244;67255;-69
2022/10/27 06:35:06;;;;;;;;;;;;;;;21.94;61.68;98102.26;581038;244;66746;-67
2022/10/27 06:37:35;;;;;;;;;;;;;;;21.94;62.68;98112.96;580950;244;65076;-67
2022/10/27 06:40:03;;;;;;;;;;;;;;;21.95;62.21;98114.57;580945;244;67599;-68
2022/10/27 06:42:30;;;;;;;;;;;;;;;21.97;62.29;98124.23;580899;244;67387;-67
2022/10/27 06:44:59;;;;;;;;;;;;;;;21.96;61.83;98118.05;580903;244;65969;-67
2022/10/27 06:47:26;;;;;;;;;;;;;;;21.97;63.74;98116.20;580246;244;64722;-67
2022/10/27 06:49:54;;;;;;;;;;;;;;;21.98;63.83;98120.48;587029;240;64598;-67
2022/10/27 06:52:21;;;;;;;;;;;;;;;21.97;62.76;98113.53;590114;240;62632;-67
2022/10/27 06:54:49;;;;;;;;;;;;;;;21.97;63.02;98118.87;589958;240;64939;-68
2022/10/27 06:57:16;;;;;;;;;;;;;;;21.97;63.85;98119.69;589966;240;66767;-68
2022/10/27 06:59:44;;;;;;;;;;;;;;;21.97;64.45;98121.55;590125;240;64864;-68
2022/10/27 07:02:13;;;;;;;;;;;;;;;21.98;64.55;98109.78;589510;240;64145;-69
2022/10/27 07:04:41;;;;;;;;;;;;;;;21.98;64.00;98109.78;586902;241;66777;-69
2022/10/27 07:07:08;;;;;;;;;;;;;;;21.97;62.26;98113.53;586913;241;62682;-68
2022/10/27 07:09:36;;;;;;;;;;;;;;;21.97;63.24;98111.66;586878;241;64549;-68
2022/10/27 07:12:03;;;;;;;;;;;;;;;21.98;65.43;98118.61;586891;241;66682;-68
2022/10/27 07:14:31;;;;;;;;;;;;;;;21.99;62.45;98111.39;586949;241;64934;-68
2022/10/27 07:16:58;;;;;;;;;;;;;;;21.98;63.28;98112.45;586876;241;66759;-68
2022/10/27 07:19:26;;;;;;;;;;;;;;;21.99;63.63;98109.55;586933;241;67623;-68
2022/10/27 07:21:54;;;;;;;;;;;;;;;21.99;63.14;98108.71;586859;241;64900;-68
2022/10/27 07:24:21;;;;;;;;;;;;;;;22.00;62.76;98107.67;586908;241;67282;-67
2022/10/27 07:26:49;;;;;;;;;;;;;;;22.00;63.92;98104.99;586907;241;66929;-69
2022/10/27 07:29:16;;;;;;;;;;;;;;;22.00;63.18;98102.31;586841;241;66021;-68
2022/10/27 07:31:45;;;;;;;;;;;;;;;22.00;64.30;98108.47;586852;241;67094;-69
2022/10/27 07:34:13;;;;;;;;;;;;;;;22.02;61.50;98101.01;586879;241;66045;-70
2022/10/27 07:36:40;;;;;;;;;;;;;;;22.02;58.16;98109.04;586853;241;62828;-68
2022/10/27 07:39:08;;;;;;;;;;;;;;;22.04;59.65;98108.77;586893;241;64889;-69
2022/10/27 07:41:35;;;;;;;;;;;;;;;22.03;59.68;98117.87;586921;241;67267;-68
2022/10/27 07:44:03;;;;;;;;;;;;;;;22.05;62.36;98113.08;586818;241;64892;-69
2022/10/27 07:46:30;;;;;;;;;;;;;;;22.05;62.80;98113.08;586832;241;67534;-68
2022/10/27 07:48:58;;;;;;;;;;;;;;;22.04;65.11;98114.12;586936;241;64526;-69
2022/10/27 07:51:25;;;;;;;;;;;;;;;22.04;64.28;98114.12;586862;241;65029;-69
2022/10/27 07:53:53;;;;;;;;;;;;;;;22.03;63.44;98118.67;586932;241;67136;-69
2022/10/27 07:56:20;;;;;;;;;;;;;;;22.04;64.52;98119.48;586813;241;65539;-69
2022/10/27 07:58:49;;;;;;;;;;;;;;;22.04;64.87;98122.16;586852;241;63098;-69
2022/10/27 08:01:17;;;;;;;;;;;;;;;22.04;61.41;98119.48;586938;241;65037;-68
2022/10/27 08:03:44;;;;;;;;;;;;;;;22.04;63.58;98125.63;587884;241;64954;-65
2022/10/27 08:06:12;;;;;;;;;;;;;;;22.03;58.02;98124.03;588110;241;63584;-70
2022/10/27 08:08:39;;;;;;;;;;;;;;;22.07;61.69;98133.19;588104;241;65592;-69
2022/10/27 08:11:07;;;;;;;;;;;;;;;22.07;63.73;98127.84;588182;241;67189;-68
2022/10/27 08:13:34;;;;;;;;;;;;;;;22.08;65.53;98123.28;588144;241;65080;-68
2022/10/27 08:16:02;;;;;;;;;;;;;;;22.06;64.23;98122.72;588152;241;66720;-68
2022/10/27 08:18:29;;;;;;;;;;;;;;;22.06;65.25;98123.52;588213;241;66979;-68
2022/10/27 08:20:57;;;;;;;;;;;;;;;22.05;63.78;98126.47;588120;241;63121;-69
2022/10/27 08:23:24;;;;;;;;;;;;;;;22.05;62.43;98118.44;588178;241;65516;-68
2022/10/27 08:25:52;;;;;;;;;;;;;;;22.05;63.55;98121.11;588167;241;67005;-70
2022/10/27 08:28:20;;;;;;;;;;;;;;;22.06;63.94;98120.05;588096;241;66350;-69
2022/10/27 08:30:47;;;;;;;;;;;;;;;22.05;64.82;98121.11;588168;241;67184;-70
2022/10/27 08:33:15;;;;;;;;;;;;;;;22.05;63.62;98118.44;588169;241;67105;-69
2022/10/27 08:35:43;;;;;;;;;;;;;;;22.05;62.19;98118.44;588113;241;62858;-70
2022/10/27 08:38:12;;;;;;;;;;;;;;;22.06;61.84;98118.17;588152;241;64990;-67
2022/10/27 08:40:44;;;;;;;;;;;;;;;22.08;59.34;98124.09;588177;241;67018;-67
2022/10/27 08:43:19;;;;;;;;;;;;;;;22.09;56.55;98123.02;588204;238;65000;-70
2022/10/27 08:45:49;;;;;;;;;;;;;;;22.12;59.20;98116.36;588367;238;67192;-71
2022/10/27 08:48:18;;;;;;;;;;;;;;;22.14;61.01;98122.27;588018;239;67009;-71
2022/10/27 08:50:46;;;;;;;;;;;;;;;22.15;60.46;98121.20;588189;241;65102;-71
2022/10/27 08:53:15;;;;;;;;;;;;;;;22.16;62.61;98117.48;588149;241;67289;-68
2022/10/27 08:55:47;;;;;;;;;;;;;;;22.17;60.98;98121.77;588183;241;67872;-68
2022/10/27 08:58:17;;;;;;;;;;;;;;;22.17;60.45;98117.22;588181;238;65062;-67
2022/10/27 09:00:45;;;;;;;;;;;;;;;22.19;61.60;98111.66;588171;241;64907;-67
2022/10/27 09:03:24;;;;;;;;;;;;;;;22.19;61.82;98117.01;588215;238;64776;-69
2022/10/27 09:06:02;;;;;;;;;;;;;;;22.19;61.54;98111.66;588190;241;65005;-68
2022/10/27 09:08:31;;;;;;;;;;;;;;;22.20;61.00;98107.91;588283;238;64832;-68
2022/10/27 09:11:03;;;;;;;;;;;;;;;22.18;59.94;98110.05;588206;239;65358;-68
2022/10/27 09:13:32;;;;;;;;;;;;;;;22.16;62.15;98112.13;588185;241;65032;-68
2022/10/27 09:16:01;;;;;;;;;;;;;;;22.14;61.29;98112.37;588205;241;67142;-72
2022/10/27 09:18:39;;;;;;;;;;;;;;;22.14;60.82;98106.21;588146;241;66994;-67
2022/10/27 09:21:14;;;;;;;;;;;;;;;22.13;60.71;98107.28;588209;238;62984;-68
2022/10/27 09:23:46;;;;;;;;;;;;;;;22.13;62.82;98108.09;588056;238;67025;-68
2022/10/27 09:26:15;;;;;;;;;;;;;;;22.12;62.45;98111.80;588154;238;66879;-68
2022/10/27 09:28:50;;;;;;;;;;;;;;;22.11;61.97;98107.52;588207;241;62952;-68
2022/10/27 09:31:19;;;;;;;;;;;;;;;22.10;60.61;98105.11;588153;241;66953;-68
2022/10/27 09:33:49;;;;;;;;;;;;;;;22.11;62.31;98109.39;588165;241;67050;-70
2022/10/27 09:36:18;;;;;;;;;;;;;;;22.10;62.25;98107.79;588162;238;65030;-68
2022/10/27 09:38:45;;;;;;;;;;;;;;;22.11;58.39;98107.52;588142;241;67412;-68
2022/10/27 09:41:13;;;;;;;;;;;;;;;22.12;60.39;98105.65;588236;241;67073;-70
2022/10/27 09:43:40;;;;;;;;;;;;;;;22.13;62.21;98104.60;588192;241;65094;-70
2022/10/27 09:46:24;;;;;;;;;;;;;;;22.11;60.92;98102.16;588044;241;67406;-71
2022/10/27 09:48:53;;;;;;;;;;;;;;;22.10;62.37;98097.88;588172;241;66927;-71
2022/10/27 09:51:22;;;;;;;;;;;;;;;22.10;63.21;98105.11;588183;241;62843;-71
2022/10/27 09:53:51;;;;;;;;;;;;;;;22.09;64.15;98100.80;588207;239;64963;-71
2022/10/27 09:56:26;;;;;;;;;;;;;;;22.09;62.60;98098.13;588167;241;67073;-71
2022/10/27 09:59:01;;;;;;;;;;;;;;;22.09;62.43;98095.44;588098;241;65159;-70
2022/10/27 10:01:47;;;;;;;;;;;;;;;22.09;62.46;98093.56;588098;241;67285;-70
2022/10/27 10:04:21;;;;;;;;;;;;;;;22.09;62.22;98095.44;588132;241;67021;-71
2022/10/27 10:06:56;;;;;;;;;;;;;;;22.09;63.42;98096.25;586513;241;65207;-71
2022/10/27 10:09:31;;;;;;;;;;;;;;;22.09;62.47;98092.77;580865;243;65016;-71
2022/10/27 10:12:01;;;;;;;;;;;;;;;22.09;62.91;98098.13;581226;244;66931;-71
2022/10/27 10:14:28;;;;;;;;;;;;;;;22.10;63.27;98097.08;577771;243;62848;-71
2022/10/27 10:16:56;;;;;;;;;;;;;;;22.09;62.78;98090.09;581177;244;67214;-71
2022/10/27 10:19:24;;;;;;;;;;;;;;;22.08;62.40;98083.94;581217;244;67524;-71
2022/10/27 10:21:53;;;;;;;;;;;;;;;22.09;61.12;98090.09;581105;244;63915;-71
2022/10/27 10:24:22;;;;;;;;;;;;;;;22.10;61.22;98086.38;581156;244;67257;-69
2022/10/27 10:26:53;;;;;;;;;;;;;;;22.10;63.39;98081.02;580975;243;46025;-70
2022/10/27 10:29:28;;;;;;;;;;;;;;;22.09;63.42;98080.19;581158;244;64807;-70
2022/10/27 10:32:09;;;;;;;;;;;;;;;22.09;61.87;98080.19;581208;244;67273;-69
2022/10/27 10:34:36;;;;;;;;;;;;;;;22.09;62.73;98076.70;581126;244;67138;-69
2022/10/27 10:37:05;;;;;;;;;;;;;;;22.09;61.71;98074.03;581193;244;65174;-69
2022/10/27 10:39:34;;;;;;;;;;;;;;;22.09;61.57;98074.03;580556;244;67300;-69
2022/10/27 10:42:12;;;;;;;;;;;;;;;22.10;62.98;98081.02;581174;244;64881;-68
2022/10/27 10:44:40;;;;;;;;;;;;;;;22.09;62.91;98074.03;581231;244;63087;-67
2022/10/27 10:47:09;;;;;;;;;;;;;;;22.09;62.33;98069.48;581130;244;64778;-68
2022/10/27 10:49:40;;;;;;;;;;;;;;;22.09;60.33;98068.67;580888;243;48209;-69
2022/10/27 10:52:09;;;;;;;;;;;;;;;22.10;61.93;98071.11;581046;243;65087;-65
2022/10/27 10:54:38;;;;;;;;;;;;;;;22.10;62.51;98064.95;580927;243;67639;-70
2022/10/27 10:57:06;;;;;;;;;;;;;;;22.10;61.58;98062.28;581002;243;67203;-71
2022/10/27 10:59:35;;;;;;;;;;;;;;;22.10;61.32;98070.31;581148;244;65211;-71
2022/10/27 11:02:06;;;;;;;;;;;;;;;22.10;62.25;98070.31;581376;243;67311;-68
2022/10/27 11:04:36;;;;;;;;;;;;;;;22.10;64.66;98065.76;583133;243;67292;-71
2022/10/27 11:07:17;;;;;;;;;;;;;;;22.09;63.33;98056.09;583023;243;64957;-71
2022/10/27 11:09:52;;;;;;;;;;;;;;;22.09;62.71;98055.29;583680;243;66927;-70
2022/10/27 11:12:37;;;;;;;;;;;;;;;22.09;64.02;98055.29;583676;243;66937;-72
2022/10/27 11:15:23;;;;;;;;;;;;;;;22.08;62.34;98053.69;583647;243;65192;-73
2022/10/27 11:17:52;;;;;;;;;;;;;;;22.08;63.59;98051.01;583616;243;66815;-72
2022/10/27 11:20:24;;;;;;;;;;;;;;;22.08;63.49;98045.66;583615;243;66651;-72
2022/10/27 11:22:52;;;;;;;;;;;;;;;22.07;63.19;98049.37;583601;243;64906;-74
2022/10/27 11:25:25;;;;;;;;;;;;;;;22.07;63.61;98052.05;583591;243;64730;-72
2022/10/27 11:28:00;;;;;;;;;;;;;;;22.07;63.42;98060.08;583393;243;66786;-72
2022/10/27 11:30:24;;;;;;;;;;;;;;;22.07;63.68;98049.37;583293;243;64954;-71
2022/10/27 11:32:57;;;;;;;;;;;;;;;22.08;62.56;98051.01;583528;243;64508;-70
2022/10/27 11:35:34;;;;;;;;;;;;;;;22.07;60.53;98049.37;583678;243;66927;-71
2022/10/27 11:38:04;;;;;;;;;;;;;;;22.08;61.30;98042.98;583550;243;62713;-71
2022/10/27 11:40:39;;;;;;;;;;;;;;;22.08;62.49;98048.33;583600;243;64978;-71
2022/10/27 11:43:08;;;;;;;;;;;;;;;22.08;61.40;98043.78;583653;243;67305;-73
2022/10/27 11:45:37;;;;;;;;;;;;;;;22.08;61.67;98046.45;583557;243;60923;-71
2022/10/27 11:48:06;;;;;;;;;;;;;;;22.09;60.26;98036.55;583460;243;67127;-70
2022/10/27 11:50:50;;;;;;;;;;;;;;;22.07;63.10;98031.47;583449;243;64632;-71
2022/10/27 11:53:18;;;;;;;;;;;;;;;22.09;62.97;98033.87;583527;243;64940;-70
2022/10/27 11:55:52;;;;;;;;;;;;;;;22.09;61.53;98036.55;583619;243;64973;-71
2022/10/27 11:58:20;;;;;;;;;;;;;;;22.08;63.20;98037.63;583429;243;66728;-71
2022/10/27 12:00:49;;;;;;;;;;;;;;;22.05;62.85;98028.23;583474;243;62933;-72
2022/10/27 12:03:36;;;;;;;;;;;;;;;22.05;63.10;98028.23;580451;243;66794;-68
2022/10/27 12:06:05;;;;;;;;;;;;;;;22.04;63.79;98026.59;578698;245;66920;-71
2022/10/27 12:08:36;;;;;;;;;;;;;;;22.03;62.99;98026.86;578573;245;65070;-71
2022/10/27 12:11:08;;;;;;;;;;;;;;;22.02;63.26;98023.38;578692;245;67405;-71
2022/10/27 12:13:46;;;;;;;;;;;;;;;22.04;64.44;98031.14;578688;245;67143;-73
2022/10/27 12:16:18;;;;;;;;;;;;;;;22.02;65.32;98023.38;578698;245;62755;-70
2022/10/27 12:18:50;;;;;;;;;;;;;;;22.01;64.51;98029.78;578658;242;67241;-68
2022/10/27 12:21:21;;;;;;;;;;;;;;;22.02;63.39;98025.26;578717;245;66993;-69
2022/10/27 12:24:02;;;;;;;;;;;;;;;22.01;63.87;98019.07;578740;243;64917;-69
2022/10/27 12:26:31;;;;;;;;;;;;;;;22.01;64.72;98027.10;578784;245;65111;-69
2022/10/27 12:29:00;;;;;;;;;;;;;;;22.01;64.58;98026.30;578395;245;64947;-68
2022/10/27 12:31:29;;;;;;;;;;;;;;;22.00;64.12;98033.53;578840;245;62797;-69
2022/10/27 12:34:01;;;;;;;;;;;;;;;22.01;63.60;98034.33;578755;245;67092;-69
2022/10/27 12:36:42;;;;;;;;;;;;;;;22.00;63.90;98022.02;578694;245;67038;-69
2022/10/27 12:39:14;;;;;;;;;;;;;;;22.00;64.81;98027.37;578784;245;65164;-69
2022/10/27 12:41:43;;;;;;;;;;;;;;;21.99;64.15;98023.89;578104;245;67185;-69
2022/10/27 12:44:12;;;;;;;;;;;;;;;22.00;64.53;98027.37;578705;245;66918;-69
2022/10/27 12:47:00;;;;;;;;;;;;;;;22.00;64.74;98032.72;578605;245;63138;-69
2022/10/27 12:49:31;;;;;;;;;;;;;;;21.99;63.64;98028.41;578771;245;64877;-69
2022/10/27 12:52:06;;;;;;;;;;;;;;;21.99;65.76;98031.92;578667;245;66852;-69
2022/10/27 12:54:36;;;;;;;;;;;;;;;21.99;65.38;98025.73;578745;242;65190;-69
2022/10/27 12:57:07;;;;;;;;;;;;;;;21.98;65.71;98024.94;578737;245;67126;-70
2022/10/27 12:59:39;;;;;;;;;;;;;;;21.98;64.69;98022.26;578483;245;65205;-69